Aviation Digital Data Service (ADDS)

Output produced by METARs form (0339 UTC 26 June 2019)
found at http://www.aviationweather.gov/metar/data/
 
Forecast for: LZIB (BRATISLAVA IVANK, SK)
Text: TAF LZIB 252300Z 2600/2700 VRB02KT CAVOK
Forecast period: 0000 to 0700 UTC 26 June 2019
Forecast type: FROM: standard forecast or significant change
Winds: variable direction winds at 2 MPH (2 knots; 1.0 m/s)
Visibility: 6 or more miles 10+ km)
Ceiling: unknown
Clouds: missing
Weather: NSW  (no significant weather)
Text: BECMG 2607/2609 17006KT
Forecast period: 0700 UTC 26 June 2019 to 0000 UTC 27 June 2019
Forecast type: BECOMING: Conditions expected to become as follows by 0900 UTC 26 June 2019
Winds: from the S (170 degrees) at 7 MPH (6 knots; 3.1 m/s)
Visibility: 6 or more miles 10+ km)
Ceiling: unknown
Clouds: missing
Weather: NSW  (no significant weather)
Text: TEMPO 2609/2616 16014KT
Forecast period: 0900 to 1600 UTC 26 June 2019
Forecast type: TEMPORARY: The following changes expected for less than half the time period
Winds: from the SSE (160 degrees) at 16 MPH (14 knots; 7.2 m/s)
Visibility: missing
Ceiling: unknown
Clouds: missing
Weather: no significant weather forecast for this period